createdAt,value
2018-05-27T00:01:19.042Z,4.90
2018-05-27T00:03:55.332Z,5.10
2018-05-27T00:06:23.900Z,4.77
2018-05-27T00:08:52.773Z,5.33
2018-05-27T00:11:21.232Z,4.63
2018-05-27T00:13:51.664Z,5.00
2018-05-27T00:16:19.881Z,4.80
2018-05-27T00:18:48.610Z,5.07
2018-05-27T00:21:17.705Z,5.10
2018-05-27T00:23:46.704Z,4.77
2018-05-27T00:26:15.004Z,4.80
2018-05-27T00:28:42.628Z,5.17
2018-05-27T00:31:10.487Z,5.27
2018-05-27T00:33:38.108Z,4.93
2018-05-27T00:36:06.133Z,5.57
2018-05-27T00:38:33.873Z,4.50
2018-05-27T00:41:02.370Z,6.47
2018-05-27T00:43:30.022Z,5.27
2018-05-27T00:45:57.619Z,5.93
2018-05-27T00:48:25.563Z,5.23
2018-05-27T00:50:53.781Z,5.30
2018-05-27T00:53:34.695Z,5.37
2018-05-27T00:56:03.153Z,5.33
2018-05-27T00:58:30.798Z,5.53
2018-05-27T01:00:58.438Z,5.27
2018-05-27T01:03:26.130Z,6.20
2018-05-27T01:05:54.320Z,5.10
2018-05-27T01:08:21.915Z,5.57
2018-05-27T01:10:50.654Z,5.40
2018-05-27T01:13:18.357Z,5.97
2018-05-27T01:15:47.701Z,5.10
2018-05-27T01:20:58.854Z,5.30
2018-05-27T01:23:27.462Z,5.50
2018-05-27T01:25:55.676Z,5.30
2018-05-27T01:28:23.601Z,6.07
2018-05-27T01:30:51.233Z,5.20
2018-05-27T01:33:18.867Z,5.73
2018-05-27T01:35:47.422Z,5.33
2018-05-27T01:38:15.073Z,6.03
2018-05-27T01:40:43.336Z,5.87
2018-05-27T01:43:12.077Z,5.30
2018-05-27T01:45:39.720Z,5.30
2018-05-27T01:48:07.306Z,5.60
2018-05-27T01:50:34.877Z,5.80
2018-05-27T01:53:03.023Z,4.97
2018-05-27T01:55:31.128Z,5.73
2018-05-27T01:57:58.013Z,5.93
2018-05-27T02:00:25.658Z,6.50
2018-05-27T02:02:53.601Z,5.43
2018-05-27T02:05:21.779Z,6.87
2018-05-27T02:07:49.339Z,5.43
2018-05-27T02:10:17.935Z,5.53
2018-05-27T02:12:45.808Z,5.13
2018-05-27T02:15:17.202Z,5.63
2018-05-27T02:17:45.232Z,5.00
2018-05-27T02:20:13.649Z,5.33
2018-05-27T02:22:41.766Z,5.37
2018-05-27T02:25:10.006Z,5.30
2018-05-27T02:27:37.593Z,5.47
2018-05-27T02:30:05.203Z,5.20
2018-05-27T02:32:32.893Z,5.70
2018-05-27T02:35:01.308Z,5.27
2018-05-27T02:37:28.914Z,6.50
2018-05-27T02:39:56.623Z,6.37
2018-05-27T02:42:24.749Z,5.70
2018-05-27T02:44:52.360Z,5.60
2018-05-27T02:47:19.955Z,5.37
2018-05-27T02:49:47.776Z,5.17
2018-05-27T02:52:15.523Z,5.23
2018-05-27T02:54:44.335Z,5.10
2018-05-27T02:57:11.907Z,5.60
2018-05-27T02:59:39.988Z,5.20
2018-05-27T03:02:07.647Z,5.77
2018-05-27T03:04:35.245Z,5.93
2018-05-27T03:07:03.980Z,5.60
2018-05-27T03:09:33.751Z,6.10
2018-05-27T03:12:01.337Z,4.83
2018-05-27T03:14:29.561Z,5.33
2018-05-27T03:16:57.242Z,5.60
2018-05-27T03:19:25.232Z,6.30
2018-05-27T03:21:53.900Z,5.57
2018-05-27T03:24:21.991Z,5.73
2018-05-27T03:26:50.122Z,5.20
2018-05-27T03:29:19.253Z,5.47
2018-05-27T03:31:48.834Z,5.80
2018-05-27T03:34:17.459Z,4.57
2018-05-27T03:36:45.633Z,5.37
2018-05-27T03:39:13.265Z,5.67
2018-05-27T03:41:41.757Z,5.37
2018-05-27T03:44:09.298Z,4.80
2018-05-27T03:46:36.928Z,5.40
2018-05-27T03:49:04.518Z,5.40
2018-05-27T03:51:32.128Z,4.83
2018-05-27T03:54:00.660Z,5.33
2018-05-27T03:56:28.688Z,4.87
2018-05-27T03:58:57.368Z,5.57
2018-05-27T04:01:24.920Z,4.90
2018-05-27T04:04:04.461Z,5.10
2018-05-27T04:06:44.234Z,4.87
2018-05-27T04:09:12.454Z,4.93
2018-05-27T04:11:40.072Z,4.73
2018-05-27T04:14:08.317Z,4.97
2018-05-27T04:16:36.343Z,5.37
2018-05-27T04:19:04.512Z,5.77
2018-05-27T04:21:33.277Z,5.17
2018-05-27T04:24:00.808Z,5.40
2018-05-27T04:26:29.109Z,4.93
2018-05-27T04:28:57.411Z,4.97
2018-05-27T04:31:25.285Z,5.20
2018-05-27T04:33:54.678Z,5.43
2018-05-27T04:36:22.492Z,5.00
2018-05-27T04:38:50.128Z,6.00
2018-05-27T04:41:18.763Z,4.90
2018-05-27T04:43:47.695Z,5.03
2018-05-27T04:46:15.397Z,5.20
2018-05-27T04:48:43.092Z,5.00
2018-05-27T04:51:10.670Z,4.67
2018-05-27T04:53:38.299Z,5.00
2018-05-27T04:56:07.064Z,5.20
2018-05-27T04:58:35.435Z,4.83
2018-05-27T05:01:03.017Z,5.07
2018-05-27T05:03:30.656Z,4.40
2018-05-27T05:05:59.089Z,4.63
2018-05-27T05:08:26.876Z,4.03
2018-05-27T05:10:55.062Z,4.30
2018-05-27T05:13:22.739Z,4.33
2018-05-27T05:15:50.858Z,4.83
2018-05-27T05:18:18.544Z,3.93
2018-05-27T05:20:48.025Z,4.40
2018-05-27T05:23:16.339Z,4.03
2018-05-27T05:25:44.765Z,4.40
2018-05-27T05:28:13.207Z,3.90
2018-05-27T05:30:40.957Z,3.93
2018-05-27T05:33:08.508Z,4.10
2018-05-27T05:35:36.728Z,3.70
2018-05-27T05:38:04.312Z,3.90
2018-05-27T05:40:31.902Z,4.43
2018-05-27T05:42:59.506Z,4.87
2018-05-27T05:45:27.100Z,4.40
2018-05-27T05:47:54.841Z,4.23
2018-05-27T05:50:22.677Z,4.27
2018-05-27T05:52:51.555Z,4.93
2018-05-27T05:55:19.816Z,4.23
2018-05-27T05:57:48.408Z,4.37
2018-05-27T06:00:16.994Z,3.70
2018-05-27T06:02:45.147Z,4.43
2018-05-27T06:05:13.481Z,3.90
2018-05-27T06:07:41.869Z,4.27
2018-05-27T06:10:10.193Z,4.33
2018-05-27T06:12:37.877Z,4.53
2018-05-27T06:15:07.290Z,4.97
2018-05-27T06:17:35.252Z,4.17
2018-05-27T06:20:03.670Z,5.00
2018-05-27T06:22:31.344Z,5.07
2018-05-27T06:24:59.039Z,5.07
2018-05-27T06:27:27.053Z,5.00
2018-05-27T06:29:54.742Z,4.33
2018-05-27T06:32:22.510Z,5.37
2018-05-27T06:34:50.751Z,4.67
2018-05-27T06:37:18.372Z,5.07
2018-05-27T06:39:45.952Z,4.83
2018-05-27T06:42:14.019Z,4.77
2018-05-27T06:44:41.644Z,4.43
2018-05-27T06:47:10.426Z,4.33
2018-05-27T06:49:38.111Z,4.80
2018-05-27T06:52:06.594Z,4.20
2018-05-27T06:54:35.297Z,4.40
2018-05-27T06:57:03.839Z,4.10
2018-05-27T06:59:32.054Z,4.30
2018-05-27T07:01:59.641Z,4.80
2018-05-27T07:04:27.256Z,4.87
2018-05-27T07:06:55.349Z,4.13
2018-05-27T07:09:23.702Z,3.73
2018-05-27T07:11:51.242Z,4.13
2018-05-27T07:14:19.654Z,3.80
2018-05-27T07:16:48.010Z,3.50
2018-05-27T07:19:16.799Z,3.77
2018-05-27T07:21:44.382Z,3.43
2018-05-27T07:24:11.929Z,3.10
2018-05-27T07:26:40.672Z,3.70
2018-05-27T07:29:10.208Z,3.40
2018-05-27T07:31:37.943Z,3.60
2018-05-27T07:34:06.415Z,3.40
2018-05-27T07:36:34.031Z,3.63
2018-05-27T07:39:01.584Z,3.37
2018-05-27T07:41:29.300Z,3.20
2018-05-27T07:43:57.275Z,4.07
2018-05-27T07:46:25.055Z,3.20
2018-05-27T07:48:52.711Z,2.90
2018-05-27T07:51:20.346Z,3.00
2018-05-27T07:53:48.789Z,2.90
2018-05-27T07:56:17.632Z,3.33
2018-05-27T07:58:46.085Z,3.03
2018-05-27T08:01:13.639Z,3.50
2018-05-27T08:03:41.676Z,3.53
2018-05-27T08:06:09.883Z,3.17
2018-05-27T08:08:37.487Z,2.80
2018-05-27T08:11:05.794Z,3.37
2018-05-27T08:13:33.354Z,2.90
2018-05-27T08:16:02.094Z,3.10
2018-05-27T08:18:30.390Z,3.17
2018-05-27T08:20:58.573Z,3.37
2018-05-27T08:23:26.113Z,2.93
2018-05-27T08:25:54.462Z,3.00
2018-05-27T08:28:22.013Z,3.30
2018-05-27T08:30:49.576Z,3.17
2018-05-27T08:33:17.936Z,3.03
2018-05-27T08:35:46.394Z,2.60
2018-05-27T08:38:13.969Z,2.87
2018-05-27T08:40:41.537Z,2.43
2018-05-27T08:43:09.130Z,2.90
2018-05-27T08:45:36.680Z,2.83
2018-05-27T08:48:04.269Z,2.93
2018-05-27T08:50:32.273Z,3.13
2018-05-27T08:52:59.889Z,3.07
2018-05-27T08:55:28.077Z,3.00
2018-05-27T08:57:55.655Z,3.43
2018-05-27T09:00:24.066Z,2.70
2018-05-27T09:02:51.707Z,2.93
2018-05-27T09:05:20.068Z,3.27
2018-05-27T09:07:47.826Z,2.63
2018-05-27T09:10:16.317Z,3.10
2018-05-27T09:12:43.944Z,2.50
2018-05-27T09:15:12.332Z,2.90
2018-05-27T09:17:39.835Z,2.40
2018-05-27T09:20:07.725Z,3.17
2018-05-27T09:22:35.275Z,2.70
2018-05-27T09:25:03.656Z,2.97
2018-05-27T09:27:31.195Z,2.50
2018-05-27T09:32:38.829Z,2.50
2018-05-27T09:35:07.102Z,3.10
2018-05-27T09:37:34.644Z,2.50
2018-05-27T09:40:02.242Z,2.70
2018-05-27T09:42:29.840Z,2.60
2018-05-27T09:44:57.560Z,2.33
2018-05-27T09:47:25.103Z,2.40
2018-05-27T09:49:53.639Z,2.90
2018-05-27T09:52:21.200Z,2.70
2018-05-27T09:54:49.832Z,2.40
2018-05-27T09:57:17.586Z,2.87
2018-05-27T09:59:45.674Z,2.60
2018-05-27T10:02:13.267Z,2.80
2018-05-27T10:04:40.839Z,2.57
2018-05-27T10:07:08.970Z,3.43
2018-05-27T10:09:37.286Z,2.70
2018-05-27T10:12:04.844Z,3.20
2018-05-27T10:14:33.155Z,2.53
2018-05-27T10:17:00.940Z,3.07
2018-05-27T10:19:29.017Z,2.70
2018-05-27T10:21:56.571Z,2.63
2018-05-27T10:24:24.333Z,2.30
2018-05-27T10:26:52.491Z,2.47
2018-05-27T10:29:20.056Z,2.80
2018-05-27T10:31:48.854Z,2.23
2018-05-27T10:34:17.048Z,2.70
2018-05-27T10:36:44.622Z,2.83
2018-05-27T10:39:12.233Z,2.20
2018-05-27T10:41:39.822Z,2.60
2018-05-27T10:44:07.397Z,2.80
2018-05-27T10:46:34.944Z,3.37
2018-05-27T10:49:02.598Z,2.60
2018-05-27T10:51:30.151Z,2.60
2018-05-27T10:53:58.575Z,2.43
2018-05-27T10:56:27.301Z,2.40
2018-05-27T10:58:55.356Z,2.60
2018-05-27T11:01:23.508Z,2.30
2018-05-27T11:03:51.099Z,2.43
2018-05-27T11:06:19.510Z,3.10
2018-05-27T11:08:47.300Z,2.20
2018-05-27T11:11:15.664Z,2.50
2018-05-27T11:13:43.263Z,2.33
2018-05-27T11:16:11.560Z,2.90
2018-05-27T11:18:39.091Z,2.40
2018-05-27T11:21:07.265Z,3.07
2018-05-27T11:23:34.828Z,2.47
2018-05-27T11:26:02.873Z,2.73
2018-05-27T11:28:30.461Z,2.60
2018-05-27T11:30:58.047Z,3.00
2018-05-27T11:33:25.632Z,2.73
2018-05-27T11:35:53.722Z,2.50
2018-05-27T11:38:21.282Z,2.47
2018-05-27T11:40:48.871Z,2.50
2018-05-27T11:43:16.729Z,2.70
2018-05-27T11:45:44.318Z,2.20
2018-05-27T11:48:11.892Z,2.60
2018-05-27T11:50:39.492Z,2.57
2018-05-27T11:53:07.083Z,3.10
2018-05-27T11:55:35.253Z,2.53
2018-05-27T11:58:02.828Z,3.00
2018-05-27T12:00:30.885Z,2.60
2018-05-27T12:02:59.461Z,2.73
2018-05-27T12:05:27.572Z,2.40
2018-05-27T12:07:55.146Z,2.57
2018-05-27T12:10:23.206Z,2.50
2018-05-27T12:12:50.781Z,2.33
2018-05-27T12:15:18.968Z,2.50
2018-05-27T12:17:46.715Z,2.10
2018-05-27T12:20:15.084Z,2.77
2018-05-27T12:22:42.636Z,2.63
2018-05-27T12:25:10.864Z,2.83
2018-05-27T12:27:38.434Z,2.50
2018-05-27T12:30:06.605Z,3.30
2018-05-27T12:32:34.156Z,2.57
2018-05-27T12:35:02.587Z,2.80
2018-05-27T12:37:30.140Z,2.30
2018-05-27T12:39:57.727Z,2.70
2018-05-27T12:42:25.471Z,2.90
2018-05-27T12:44:53.643Z,2.70
2018-05-27T12:47:21.533Z,3.20
2018-05-27T12:49:50.485Z,2.37
2018-05-27T12:52:19.111Z,2.47
2018-05-27T12:54:48.747Z,2.30
2018-05-27T12:57:17.472Z,2.37
2018-05-27T12:59:46.229Z,2.30
2018-05-27T13:02:13.800Z,2.37
2018-05-27T13:04:41.382Z,2.87
2018-05-27T13:07:09.556Z,3.87
2018-05-27T13:09:37.474Z,3.20
2018-05-27T13:12:05.038Z,2.73
2018-05-27T13:14:33.919Z,3.67
2018-05-27T13:17:01.639Z,2.50
2018-05-27T13:19:29.812Z,3.00
2018-05-27T13:21:57.361Z,2.47
2018-05-27T13:24:25.179Z,3.20
2018-05-27T13:26:53.759Z,2.43
2018-05-27T13:29:21.334Z,2.73
2018-05-27T13:31:49.608Z,2.10
2018-05-27T13:34:18.375Z,3.10
2018-05-27T13:36:47.644Z,2.40
2018-05-27T13:39:15.315Z,2.17
2018-05-27T13:41:42.899Z,2.70
2018-05-27T13:44:10.492Z,2.47
2018-05-27T13:46:38.056Z,2.70
2018-05-27T13:49:05.720Z,2.57
2018-05-27T13:51:33.943Z,2.53
2018-05-27T13:54:01.492Z,2.50
2018-05-27T13:56:29.059Z,3.10
2018-05-27T13:58:57.546Z,2.37
2018-05-27T14:01:25.472Z,3.33
2018-05-27T14:03:53.175Z,2.10
2018-05-27T14:06:21.441Z,3.47
2018-05-27T14:08:48.986Z,2.30
2018-05-27T14:11:17.664Z,4.47
2018-05-27T14:13:45.227Z,2.50
2018-05-27T14:16:14.586Z,2.60
2018-05-27T14:18:42.553Z,2.13
2018-05-27T14:21:10.716Z,3.80
2018-05-27T14:23:38.254Z,2.20
2018-05-27T14:26:06.603Z,2.50
2018-05-27T14:28:34.156Z,2.43
2018-05-27T14:31:02.194Z,2.13
2018-05-27T14:33:29.829Z,2.83
2018-05-27T14:35:58.278Z,2.20
2018-05-27T14:38:25.848Z,2.53
2018-05-27T14:40:53.583Z,2.30
2018-05-27T14:43:21.623Z,2.40
2018-05-27T14:45:49.177Z,2.00
2018-05-27T14:48:16.776Z,2.37
2018-05-27T14:50:44.359Z,2.10
2018-05-27T14:53:12.707Z,2.17
2018-05-27T14:55:41.240Z,2.03
2018-05-27T14:58:08.794Z,2.37
2018-05-27T15:00:37.015Z,2.10
2018-05-27T15:03:04.559Z,2.20
2018-05-27T15:05:32.931Z,2.47
2018-05-27T15:08:00.480Z,2.03
2018-05-27T15:10:28.859Z,2.40
2018-05-27T15:12:56.416Z,2.70
2018-05-27T15:15:24.772Z,2.40
2018-05-27T15:17:52.319Z,2.10
2018-05-27T15:20:20.390Z,2.63
2018-05-27T15:22:48.015Z,1.90
2018-05-27T15:25:16.672Z,2.60
2018-05-27T15:27:44.228Z,2.07
2018-05-27T15:30:12.670Z,2.43
2018-05-27T15:32:40.205Z,2.10
2018-05-27T15:35:08.587Z,2.00
2018-05-27T15:37:36.169Z,2.00
2018-05-27T15:40:03.796Z,1.90
2018-05-27T15:42:31.435Z,2.33
2018-05-27T15:44:59.026Z,2.07
2018-05-27T15:47:26.572Z,2.40
2018-05-27T15:49:55.054Z,2.00
2018-05-27T15:52:22.645Z,2.27
2018-05-27T15:54:51.306Z,1.83
2018-05-27T15:57:18.840Z,2.20
2018-05-27T15:59:47.172Z,2.23
2018-05-27T16:02:14.738Z,2.83
2018-05-27T16:04:42.306Z,2.13
2018-05-27T16:07:10.564Z,2.27
2018-05-27T16:09:38.709Z,1.97
2018-05-27T16:12:06.270Z,1.80
2018-05-27T16:14:34.317Z,2.03
2018-05-27T16:17:01.911Z,2.17
2018-05-27T16:19:30.201Z,2.53
2018-05-27T16:21:57.843Z,1.90
2018-05-27T16:24:25.380Z,2.73
2018-05-27T16:26:53.926Z,1.73
2018-05-27T16:29:21.503Z,2.70
2018-05-27T16:31:52.620Z,2.47
2018-05-27T16:34:20.716Z,2.03
2018-05-27T16:36:48.276Z,2.00
2018-05-27T16:39:16.321Z,2.33
2018-05-27T16:41:43.886Z,2.30
2018-05-27T16:44:11.432Z,2.27
2018-05-27T16:46:39.087Z,2.13
2018-05-27T16:49:06.805Z,2.20
2018-05-27T16:51:34.813Z,2.10
2018-05-27T16:54:03.172Z,2.10
2018-05-27T16:56:31.660Z,2.30
2018-05-27T16:59:00.395Z,1.77
2018-05-27T17:01:27.974Z,2.33
2018-05-27T17:03:55.544Z,1.80
2018-05-27T17:06:24.051Z,2.17
2018-05-27T17:08:51.608Z,1.83
2018-05-27T17:11:19.814Z,2.50
2018-05-27T17:13:47.543Z,1.70
2018-05-27T17:16:15.847Z,2.10
2018-05-27T17:18:44.097Z,2.50
2018-05-27T17:21:11.654Z,1.57
2018-05-27T17:23:39.205Z,1.90
2018-05-27T17:26:07.605Z,1.77
2018-05-27T17:28:35.194Z,1.83
2018-05-27T17:31:03.399Z,1.80
2018-05-27T17:33:31.067Z,1.73
2018-05-27T17:35:59.195Z,2.00
2018-05-27T17:38:26.776Z,1.80
2018-05-27T17:40:54.399Z,2.13
2018-05-27T17:43:22.010Z,1.23
2018-05-27T17:45:49.588Z,2.00
2018-05-27T17:48:18.828Z,1.60
2018-05-27T17:50:46.927Z,1.90
2018-05-27T17:53:15.105Z,1.63
2018-05-27T17:55:42.645Z,2.10
2018-05-27T17:58:10.200Z,1.87
2018-05-27T18:00:38.658Z,2.07
2018-05-27T18:03:06.216Z,1.60
2018-05-27T18:05:34.323Z,1.60
2018-05-27T18:08:01.953Z,1.73
2018-05-27T18:10:30.442Z,1.63
2018-05-27T18:12:58.007Z,1.80
2018-05-27T18:15:26.123Z,1.60
2018-05-27T18:17:53.893Z,1.97
2018-05-27T18:20:22.185Z,1.83
2018-05-27T18:22:49.744Z,2.43
2018-05-27T18:25:18.032Z,1.63
2018-05-27T18:27:45.751Z,1.50
2018-05-27T18:30:14.623Z,2.57
2018-05-27T18:32:42.168Z,1.70
2018-05-27T18:35:10.808Z,2.10
2018-05-27T18:37:38.354Z,1.90
2018-05-27T18:40:05.917Z,2.63
2018-05-27T18:42:33.608Z,1.57
2018-05-27T18:45:01.265Z,2.97
2018-05-27T18:47:29.228Z,1.70
2018-05-27T18:49:56.838Z,2.60
2018-05-27T18:52:24.500Z,1.60
2018-05-27T18:54:52.768Z,1.60
2018-05-27T18:57:20.311Z,2.10
2018-05-27T18:59:48.971Z,1.80
2018-05-27T19:02:16.684Z,2.10
2018-05-27T19:04:44.950Z,2.33
2018-05-27T19:07:13.031Z,3.20
2018-05-27T19:09:41.278Z,1.73
2018-05-27T19:12:08.843Z,2.40
2018-05-27T19:14:37.240Z,1.73
2018-05-27T19:17:05.498Z,2.37
2018-05-27T19:19:33.922Z,2.03
2018-05-27T19:22:01.681Z,2.30
2018-05-27T19:24:29.356Z,1.90
2018-05-27T19:26:57.837Z,2.03
2018-05-27T19:29:25.552Z,1.90
2018-05-27T19:31:53.748Z,1.80
2018-05-27T19:34:22.095Z,2.37
2018-05-27T19:36:49.701Z,1.90
2018-05-27T19:39:17.547Z,2.00
2018-05-27T19:41:45.424Z,1.77
2018-05-27T19:44:14.206Z,2.20
2018-05-27T19:46:41.775Z,2.03
2018-05-27T19:49:09.427Z,2.60
2018-05-27T19:51:37.055Z,1.80
2018-05-27T19:54:06.522Z,2.40
2018-05-27T19:56:34.269Z,2.30
2018-05-27T19:59:02.441Z,2.20
2018-05-27T20:01:30.046Z,1.67
2018-05-27T20:03:57.759Z,2.10
2018-05-27T20:06:26.110Z,1.93
2018-05-27T20:08:53.744Z,2.03
2018-05-27T20:11:22.458Z,2.13
2018-05-27T20:13:50.932Z,1.70
2018-05-27T20:16:19.224Z,2.37
2018-05-27T20:18:47.755Z,1.70
2018-05-27T20:21:15.306Z,1.83
2018-05-27T20:23:43.389Z,2.10
2018-05-27T20:26:11.479Z,1.70
2018-05-27T20:28:39.082Z,2.27
2018-05-27T20:31:06.646Z,1.87
2018-05-27T20:33:34.225Z,2.40
2018-05-27T20:36:02.480Z,1.70
2018-05-27T20:38:30.081Z,2.50
2018-05-27T20:40:58.524Z,1.80
2018-05-27T20:43:26.073Z,2.33
2018-05-27T20:45:53.878Z,2.07
2018-05-27T20:48:21.827Z,2.13
2018-05-27T20:50:49.428Z,1.80
2018-05-27T20:53:18.068Z,2.07
2018-05-27T20:55:45.820Z,2.33
2018-05-27T20:58:13.967Z,2.07
2018-05-27T21:00:42.266Z,2.17
2018-05-27T21:03:09.947Z,1.80
2018-05-27T21:05:38.112Z,2.37
2018-05-27T21:08:06.331Z,2.07
2018-05-27T21:10:34.562Z,2.33
2018-05-27T21:13:02.172Z,2.03
2018-05-27T21:15:30.956Z,2.40
2018-05-27T21:17:58.572Z,2.40
2018-05-27T21:20:26.739Z,2.13
2018-05-27T21:22:54.484Z,2.27
2018-05-27T21:25:23.515Z,2.27
2018-05-27T21:27:51.112Z,1.93
2018-05-27T21:30:19.190Z,1.93
2018-05-27T21:32:47.108Z,2.33
2018-05-27T21:35:17.217Z,1.93
2018-05-27T21:37:44.910Z,2.17
2018-05-27T21:40:12.884Z,2.03
2018-05-27T21:42:40.464Z,2.60
2018-05-27T21:45:08.027Z,2.20
2018-05-27T21:47:35.637Z,2.93
2018-05-27T21:50:03.273Z,2.13
2018-05-27T21:52:30.896Z,2.70
2018-05-27T21:54:58.828Z,2.50
2018-05-27T21:57:26.392Z,2.90
2018-05-27T21:59:54.870Z,2.30
2018-05-27T22:02:22.597Z,2.40
2018-05-27T22:04:50.858Z,2.10
2018-05-27T22:07:19.241Z,2.30
2018-05-27T22:09:47.511Z,2.27
2018-05-27T22:12:15.143Z,2.40
2018-05-27T22:14:43.110Z,2.60
2018-05-27T22:17:10.730Z,2.40
2018-05-27T22:19:38.871Z,3.60
2018-05-27T22:22:06.435Z,2.10
2018-05-27T22:24:34.067Z,2.80
2018-05-27T22:27:02.276Z,2.27
2018-05-27T22:29:29.830Z,2.70
2018-05-27T22:31:57.386Z,1.87
2018-05-27T22:34:25.588Z,2.30
2018-05-27T22:36:53.790Z,2.03
2018-05-27T22:39:21.354Z,2.23
2018-05-27T22:41:48.908Z,2.80
2018-05-27T22:44:16.874Z,2.53
2018-05-27T22:46:45.257Z,2.20
2018-05-27T22:49:12.955Z,3.00
2018-05-27T22:51:41.539Z,2.90
2018-05-27T22:54:12.337Z,2.70
2018-05-27T22:56:39.895Z,2.40
2018-05-27T22:59:08.152Z,2.53
2018-05-27T23:01:35.767Z,2.53
2018-05-27T23:04:03.407Z,2.20
2018-05-27T23:06:31.623Z,2.40
2018-05-27T23:08:59.330Z,2.13
2018-05-27T23:11:27.367Z,2.53
2018-05-27T23:13:54.907Z,2.33
2018-05-27T23:16:23.092Z,2.17
2018-05-27T23:18:51.382Z,2.73
2018-05-27T23:21:19.352Z,1.77
2018-05-27T23:23:47.162Z,2.60
2018-05-27T23:26:15.271Z,2.10
2018-05-27T23:28:42.963Z,2.50
2018-05-27T23:31:10.502Z,2.00
2018-05-27T23:33:39.043Z,2.70
2018-05-27T23:36:07.818Z,2.20
2018-05-27T23:38:35.388Z,2.60
2018-05-27T23:41:02.933Z,2.10
2018-05-27T23:43:30.521Z,2.53
2018-05-27T23:45:58.078Z,2.03
2018-05-27T23:48:25.722Z,2.33
2018-05-27T23:50:54.304Z,2.63
2018-05-27T23:53:22.991Z,1.97
2018-05-27T23:55:50.539Z,2.50
2018-05-27T23:58:18.089Z,2.10
